ADDS METAR Data INFO
IDs: Format: Raw Decoded Include TAF

Data at: 2113 UTC 22 Oct 2017

KLRJ 222055Z AUTO 21010G18KT 10SM CLR 21/M03 A2996 RMK AO2
KLRJ 222035Z AUTO 21008G19KT 10SM CLR 20/M03 A2997 RMK AO2
KLRJ 222015Z AUTO 22010G18KT 10SM CLR 20/M04 A2998 RMK AO2
KLRJ 221955Z AUTO 23008G14KT 190V260 10SM CLR 20/M03 A2999 RMK AO2
KLRJ 221935Z AUTO 22007G16KT 180V250 10SM CLR 20/M03 A2999 RMK AO2
KLRJ 221915Z AUTO 19011KT 10SM CLR 20/M01 A3000 RMK AO2
KLRJ 221855Z AUTO 23008KT 200V260 10SM CLR 19/M01 A3001 RMK AO2
KLRJ 221835Z AUTO 20010G15KT 10SM CLR 19/M02 A3002 RMK AO2
KLRJ 221815Z AUTO 22010G16KT 10SM CLR 19/M02 A3003 RMK AO2
KLRJ 221755Z AUTO 25008G16KT 10SM CLR 18/M03 A3004 RMK AO2
KLRJ 221735Z AUTO 25008KT 10SM CLR 18/M02 A3006 RMK AO2
KLRJ 221715Z AUTO 23009KT 10SM CLR 18/M01 A3006 RMK AO2
KLRJ 221655Z AUTO VRB04G10KT 10SM CLR 16/00 A3007 RMK AO2
KLRJ 221635Z AUTO VRB06KT 10SM CLR 16/01 A3008 RMK AO2
KLRJ 221615Z AUTO 00000KT 10SM CLR 14/02 A3008 RMK AO2
KLRJ 221555Z AUTO 00000KT 10SM CLR 13/02 A3008 RMK AO2
KLRJ 221535Z AUTO 00000KT 10SM CLR 12/03 A3007 RMK AO2
KLRJ 221515Z AUTO 00000KT 10SM CLR 10/04 A3007 RMK AO2
KLRJ 221455Z AUTO 22003KT 10SM CLR 08/04 A3008 RMK AO2
KLRJ 221435Z AUTO 00000KT 10SM CLR 06/04 A3008 RMK AO2
KLRJ 221415Z AUTO 19003KT 10SM CLR 05/03 A3008 RMK AO2
KLRJ 221355Z AUTO 00000KT 10SM CLR 04/03 A3008 RMK AO2
KLRJ 221335Z AUTO 18004KT 10SM CLR 02/02 A3007 RMK AO2
KLRJ 221315Z AUTO 19004KT 10SM CLR 02/01 A3006 RMK AO2
KLRJ 221255Z AUTO 20004KT 10SM CLR 02/01 A3006 RMK AO2
KLRJ 221235Z AUTO 19004KT 10SM CLR 02/01 A3006 RMK AO2
KLRJ 221215Z AUTO 18005KT 10SM CLR 02/01 A3006 RMK AO2
KLRJ 221155Z AUTO 18004KT 10SM CLR 02/01 A3005 RMK AO2
KLRJ 221135Z AUTO 20004KT 10SM CLR 02/02 A3005 RMK AO2
KLRJ 221115Z AUTO 20003KT 10SM CLR 03/02 A3004 RMK AO2
KLRJ 221055Z AUTO 18004KT 10SM CLR 02/02 A3003 RMK AO2
KLRJ 221035Z AUTO 20003KT 10SM CLR 03/03 A3002 RMK AO2
KLRJ 221015Z AUTO 00000KT 10SM CLR 03/03 A3000 RMK AO2
KLRJ 220955Z AUTO 00000KT 10SM CLR 04/03 A3000 RMK AO2
KLRJ 220935Z AUTO 00000KT 10SM CLR 04/03 A2999 RMK AO2
KLRJ 220915Z AUTO 00000KT 10SM CLR 05/03 A2999 RMK AO2
KLRJ 220855Z AUTO 00000KT 10SM CLR 06/03 A2999 RMK AO2
KLRJ 220835Z AUTO 00000KT 10SM CLR 07/04 A2999 RMK AO2
KLRJ 220815Z AUTO 25003KT 10SM CLR 07/04 A2999 RMK AO2
KLRJ 220755Z AUTO 00000KT 10SM CLR 07/04 A2997 RMK AO2
KLRJ 220735Z AUTO 00000KT 10SM CLR 07/04 A2997 RMK AO2
KLRJ 220715Z AUTO 00000KT 10SM CLR 06/04 A2997 RMK AO2
KLRJ 220655Z AUTO 00000KT 10SM CLR 06/04 A2999 RMK AO2
KLRJ 220635Z AUTO 00000KT 10SM CLR 06/04 A2999 RMK AO2
KLRJ 220615Z AUTO 00000KT 10SM CLR 06/04 A2997 RMK AO2
KLRJ 220555Z AUTO 00000KT 10SM CLR 05/04 A2997 RMK AO2
KLRJ 220535Z AUTO 00000KT 10SM CLR 05/04 A2996 RMK AO2
KLRJ 220515Z AUTO 00000KT 10SM CLR 05/04 A2995 RMK AO2
KLRJ 220455Z AUTO 00000KT 10SM CLR 05/04 A2995 RMK AO2
KLRJ 220435Z AUTO 20004KT 10SM CLR 06/04 A2996 RMK AO2
KLRJ 220415Z AUTO 18007KT 10SM CLR 06/04 A2996 RMK AO2
KLRJ 220355Z AUTO 20004KT 10SM CLR 06/04 A2994 RMK AO2
KLRJ 220335Z AUTO 20004KT 10SM CLR 06/04 A2994 RMK AO2
KLRJ 220315Z AUTO 00000KT 10SM CLR 07/04 A2993 RMK AO2
KLRJ 220255Z AUTO 00000KT 10SM CLR 07/04 A2992 RMK AO2
KLRJ 220235Z AUTO 00000KT 10SM CLR 08/04 A2992 RMK AO2
KLRJ 220215Z AUTO 00000KT 10SM CLR 08/04 A2993 RMK AO2
KLRJ 220155Z AUTO 00000KT 10SM CLR 09/04 A2992 RMK AO2
KLRJ 220135Z AUTO 00000KT 10SM CLR 09/04 A2991 RMK AO2
KLRJ 220115Z AUTO VRB04KT 10SM CLR 10/04 A2990 RMK AO2
KLRJ 220055Z AUTO 30006G12KT 10SM CLR 10/05 A2989 RMK AO2
KLRJ 220035Z AUTO 29005KT 10SM CLR 11/05 A2990 RMK AO2
KLRJ 220015Z AUTO 28007KT 250V310 10SM CLR 11/05 A2989 RMK AO2
KLRJ 212355Z AUTO 29009KT 10SM SCT070 12/05 A2987 RMK AO2
KLRJ 212335Z AUTO 29009G14KT 10SM OVC070 13/06 A2985 RMK AO2
KLRJ 212315Z AUTO 29005G11KT 10SM OVC065 13/06 A2985 RMK AO2
KLRJ 212255Z AUTO 30008KT 10SM OVC060 13/05 A2983 RMK AO2
KLRJ 212235Z AUTO 31008G15KT 10SM OVC060 13/05 A2981 RMK AO2
KLRJ 212215Z AUTO 30009G17KT 270V340 10SM OVC055 13/06 A2980 RMK AO2
KLRJ 212155Z AUTO 30011G17KT 10SM OVC050 13/06 A2979 RMK AO2
KLRJ 212135Z AUTO 30012G19KT 10SM OVC050 14/06 A2977 RMK AO2
KLRJ 212115Z AUTO 29010G16KT 10SM OVC050 14/06 A2978 RMK AO2
KLRJ 212055Z AUTO 30014G23KT 10SM OVC046 15/06 A2976 RMK AO2
KLRJ 212035Z AUTO 30013G19KT 10SM OVC044 15/07 A2972 RMK AO2
KLRJ 212015Z AUTO 30013G18KT 10SM OVC042 14/08 A2972 RMK AO2
KLRJ 211955Z AUTO 30009G20KT 9SM OVC039 15/08 A2971 RMK AO2
KLRJ 211935Z AUTO 30009G15KT 10SM OVC037 15/08 A2970 RMK AO2
KLRJ 211915Z AUTO 30012KT 10SM OVC034 15/08 A2968 RMK AO2
KLRJ 211855Z AUTO 30010G18KT 10SM OVC031 15/09 A2967 RMK AO2
KLRJ 211835Z AUTO 28011G17KT 10SM OVC029 16/11 A2965 RMK AO2
KLRJ 211815Z AUTO 27013G18KT 6SM HZ SCT022 BKN027 OVC044 16/13 A2963 RMK AO2
KLRJ 211755Z AUTO 18015G22KT 9SM FEW029 SCT041 BKN050 22/18 A2960 RMK AO2
KLRJ 211735Z AUTO 18015G24KT 9SM FEW038 BKN055 OVC070 21/17 A2960 RMK AO2
KLRJ 211715Z AUTO 18017G23KT 10SM BKN055 OVC070 21/17 A2959 RMK AO2
KLRJ 211655Z AUTO 18021G30KT 10SM FEW035 FEW055 OVC070 22/17 A2959 RMK AO2
KLRJ 211635Z AUTO 17020G29KT 10SM SCT031 BKN047 OVC065 22/17 A2959 RMK AO2
KLRJ 211615Z AUTO 17014G27KT 10SM FEW021 SCT026 BKN031 22/17 A2959 RMK AO2
KLRJ 211555Z AUTO 17023G29KT 10SM FEW019 BKN026 OVC043 22/17 A2958 RMK AO2
KLRJ 211535Z AUTO 17018G24KT 10SM FEW019 BKN027 OVC065 21/17 A2958 RMK AO2
KLRJ 211515Z AUTO 16018G27KT 10SM SCT028 BKN036 OVC055 21/17 A2958 RMK AO2
KLRJ 211455Z AUTO 16017G25KT 10SM SCT029 SCT042 OVC060 20/17 A2958 RMK AO2
KLRJ 211435Z AUTO 16019G25KT 10SM BKN028 BKN039 OVC060 20/17 A2957 RMK AO2
KLRJ 211415Z AUTO 17019G24KT 10SM FEW018 BKN025 OVC060 20/17 A2958 RMK AO2
KLRJ 211355Z AUTO 17018KT 10SM SCT018 BKN024 OVC035 20/17 A2957 RMK AO2
KLRJ 211335Z AUTO 17013G23KT 10SM SCT018 BKN035 OVC060 19/17 A2958 RMK AO2
KLRJ 211315Z AUTO 18015G23KT 10SM BKN018 OVC024 19/16 A2957 RMK AO2
KLRJ 211255Z AUTO 18015G20KT 10SM SCT020 OVC026 19/16 A2957 RMK AO2
KLRJ 211235Z AUTO 17017G28KT 10SM OVC027 19/16 A2955 RMK AO2
KLRJ 211215Z AUTO 17016G24KT 10SM FEW017 OVC026 19/16 A2954 RMK AO2
KLRJ 211155Z AUTO 16017G26KT 10SM OVC026 19/16 A2954 RMK AO2
KLRJ 211135Z AUTO 16019G29KT 10SM OVC026 19/16 A2954 RMK AO2
KLRJ 211115Z AUTO 16020G27KT 10SM OVC027 19/16 A2953 RMK AO2
KLRJ 211055Z AUTO 16019G28KT 10SM OVC027 19/16 A2954 RMK AO2
KLRJ 211035Z AUTO 16019G27KT 10SM OVC026 19/16 A2954 RMK AO2
KLRJ 211015Z AUTO 16019G25KT 10SM OVC025 19/15 A2954 RMK AO2
KLRJ 210955Z AUTO 16017G28KT 10SM OVC027 19/15 A2954 RMK AO2
KLRJ 210935Z AUTO 16018G27KT 10SM OVC028 19/15 A2954 RMK AO2
KLRJ 210915Z AUTO 16018G25KT 10SM BKN029 OVC043 19/15 A2955 RMK AO2